Time;durP1;ratioP1;P1;durP2;ratioP2;P2;SDS_P1;SDS_P2;PMS_P1;PMS_P2;Temp;Humidity;BMP_temperature;BMP_pressure;BME280_temperature;BME280_humidity;BME280_pressure;Samples;Min_cycle;Max_cycle;Signal;HPM_P1;HPM_P2
2020/12/07 00:00:27;;;;;;;12.68;8.23;;;;;11.10;99635.00;;;;5073368;28;20221;-77
2020/12/07 00:02:54;;;;;;;13.85;8.68;;;;;11.10;99621.00;;;;5090070;28;20205;-78
2020/12/07 00:05:21;;;;;;;12.63;8.27;;;;;11.10;99611.00;;;;5090664;28;20198;-77
2020/12/07 00:07:48;;;;;;;11.85;8.10;;;;;11.10;99612.00;;;;5091024;28;20201;-77
2020/12/07 00:10:15;;;;;;;10.55;7.53;;;;;11.10;99604.00;;;;5090763;28;20205;-77
2020/12/07 00:12:45;;;;;;;14.02;8.57;;;;;11.10;99603.00;;;;5090318;28;20202;-77
2020/12/07 00:15:12;;;;;;;13.27;8.27;;;;;11.00;99607.00;;;;5090648;28;20643;-77
2020/12/07 00:17:38;;;;;;;14.55;8.60;;;;;11.10;99601.00;;;;5090303;28;20195;-77
2020/12/07 00:20:07;;;;;;;13.80;8.25;;;;;11.00;99589.00;;;;5090412;28;20225;-77
2020/12/07 00:22:34;;;;;;;13.05;7.65;;;;;11.00;99595.00;;;;5089883;28;20206;-77
2020/12/07 00:25:03;;;;;;;11.77;7.32;;;;;11.00;99591.00;;;;5090297;28;20206;-77
2020/12/07 00:27:32;;;;;;;12.63;7.93;;;;;11.00;99593.00;;;;5090009;28;20206;-77
2020/12/07 00:29:59;;;;;;;15.80;8.18;;;;;11.10;99588.00;;;;5090374;28;20671;-77
2020/12/07 00:32:27;;;;;;;12.43;8.35;;;;;11.00;99586.00;;;;5074173;28;20201;-77
2020/12/07 00:34:55;;;;;;;12.90;7.88;;;;;11.10;99579.00;;;;5089779;28;20207;-78
2020/12/07 00:37:22;;;;;;;11.80;7.82;;;;;11.10;99581.00;;;;5090018;28;20198;-77
2020/12/07 00:39:49;;;;;;;14.43;8.30;;;;;11.10;99571.00;;;;5090328;28;20214;-77
2020/12/07 00:42:17;;;;;;;14.27;8.45;;;;;11.10;99573.00;;;;5090526;28;20203;-77
2020/12/07 00:44:44;;;;;;;14.73;8.88;;;;;11.10;99564.00;;;;5089542;28;20197;-77
2020/12/07 00:47:11;;;;;;;12.60;8.25;;;;;11.10;99562.00;;;;5088988;28;20761;-77
2020/12/07 00:49:39;;;;;;;10.15;7.20;;;;;11.10;99575.00;;;;5089155;28;20206;-77
2020/12/07 00:52:06;;;;;;;13.60;8.35;;;;;11.10;99573.00;;;;5089692;28;20215;-77
2020/12/07 00:54:33;;;;;;;12.57;7.75;;;;;11.10;99579.00;;;;5089685;28;20194;-77
2020/12/07 00:57:01;;;;;;;13.77;8.13;;;;;11.10;99583.00;;;;5089495;28;20202;-77
2020/12/07 00:59:29;;;;;;;12.25;7.45;;;;;11.10;99556.00;;;;5088894;28;20237;-77
2020/12/07 01:01:56;;;;;;;12.52;7.80;;;;;11.20;99546.00;;;;5088853;28;20671;-78
2020/12/07 01:04:23;;;;;;;13.82;8.50;;;;;11.10;99547.00;;;;5088734;28;20206;-78
2020/12/07 01:06:50;;;;;;;11.75;8.23;;;;;11.20;99539.00;;;;5089577;28;20205;-77
2020/12/07 01:09:18;;;;;;;14.45;8.88;;;;;11.10;99534.00;;;;5088953;28;20682;-77
2020/12/07 01:11:46;;;;;;;13.98;8.30;;;;;11.10;99541.00;;;;5088312;28;20206;-77
2020/12/07 01:14:13;;;;;;;13.43;8.45;;;;;11.10;99547.00;;;;5088925;28;20686;-77
2020/12/07 01:16:41;;;;;;;11.82;7.72;;;;;11.10;99557.00;;;;5088737;28;20675;-77
2020/12/07 01:19:09;;;;;;;14.57;8.48;;;;;11.10;99560.00;;;;5088787;28;20205;-75
2020/12/07 01:21:36;;;;;;;13.70;8.57;;;;;11.10;99572.00;;;;5088824;28;20237;-75
2020/12/07 01:24:04;;;;;;;13.60;8.10;;;;;11.10;99574.00;;;;5089299;28;20202;-77
2020/12/07 01:26:31;;;;;;;14.20;7.85;;;;;11.10;99580.00;;;;5088972;28;20203;-78
2020/12/07 01:28:58;;;;;;;12.20;8.02;;;;;11.10;99582.00;;;;5089244;28;20198;-77
2020/12/07 01:31:24;;;;;;;12.98;7.53;;;;;11.10;99592.00;;;;5089152;28;20202;-78
2020/12/07 01:33:52;;;;;;;15.40;8.65;;;;;11.10;99583.00;;;;5088901;28;20205;-78
2020/12/07 01:36:19;;;;;;;12.43;7.95;;;;;11.20;99567.00;;;;5088378;28;20194;-78
2020/12/07 01:38:45;;;;;;;13.80;8.80;;;;;11.20;99571.00;;;;5089057;28;20191;-78
2020/12/07 01:41:12;;;;;;;12.27;7.78;;;;;11.20;99562.00;;;;5088677;28;20226;-78
2020/12/07 01:43:39;;;;;;;11.98;7.55;;;;;11.20;99563.00;;;;5088029;28;20210;-78
2020/12/07 01:46:06;;;;;;;12.45;7.57;;;;;11.20;99560.00;;;;5088303;28;20198;-78
2020/12/07 01:48:34;;;;;;;13.05;7.72;;;;;11.20;99572.00;;;;5087681;28;20273;-78
2020/12/07 01:51:02;;;;;;;11.85;7.43;;;;;11.20;99565.00;;;;5088908;28;20222;-77
2020/12/07 01:53:29;;;;;;;11.70;7.13;;;;;11.20;99565.00;;;;5088823;28;20247;-78
2020/12/07 01:55:56;;;;;;;12.82;7.75;;;;;11.30;99562.00;;;;5088510;28;20202;-78
2020/12/07 01:58:23;;;;;;;12.07;7.13;;;;;11.30;99554.00;;;;5088356;28;20230;-78
2020/12/07 02:00:49;;;;;;;10.50;6.55;;;;;11.30;99560.00;;;;5088379;28;20221;-78
2020/12/07 02:03:16;;;;;;;12.75;7.78;;;;;11.30;99570.00;;;;5089199;28;20194;-78
2020/12/07 02:05:43;;;;;;;13.38;7.57;;;;;11.30;99565.00;;;;5088251;28;20201;-77
2020/12/07 02:08:12;;;;;;;11.98;6.90;;;;;11.30;99562.00;;;;5088730;28;20245;-78
2020/12/07 02:10:39;;;;;;;11.15;6.85;;;;;11.30;99545.00;;;;5087929;28;20224;-78
2020/12/07 02:13:05;;;;;;;11.38;6.43;;;;;11.30;99536.00;;;;5088615;28;20672;-79
2020/12/07 02:15:32;;;;;;;11.40;6.90;;;;;11.30;99522.00;;;;5088340;28;20209;-79
2020/12/07 02:17:59;;;;;;;12.10;7.38;;;;;11.30;99540.00;;;;5088356;28;20210;-79
2020/12/07 02:20:27;;;;;;;10.35;6.55;;;;;11.30;99538.00;;;;5071928;28;20599;-79
2020/12/07 02:22:53;;;;;;;11.63;6.75;;;;;11.30;99537.00;;;;5090925;28;20186;-79
2020/12/07 02:25:21;;;;;;;11.25;7.10;;;;;11.30;99532.00;;;;5093096;28;20194;-79
2020/12/07 02:27:48;;;;;;;9.45;6.10;;;;;11.20;99525.00;;;;5092645;28;20202;-79
2020/12/07 02:30:16;;;;;;;9.25;5.78;;;;;11.20;99516.00;;;;5092095;28;20205;-78
2020/12/07 02:32:43;;;;;;;10.18;6.25;;;;;11.30;99518.00;;;;5092643;28;20198;-79
2020/12/07 02:35:10;;;;;;;7.78;5.10;;;;;11.20;99519.00;;;;5092223;28;20202;-79
2020/12/07 02:37:39;;;;;;;10.52;6.15;;;;;11.20;99508.00;;;;5092638;28;20205;-79
2020/12/07 02:40:06;;;;;;;10.13;5.63;;;;;11.30;99503.00;;;;5092497;28;20225;-79
2020/12/07 02:42:33;;;;;;;11.38;6.28;;;;;11.30;99501.00;;;;5091690;28;20182;-78
2020/12/07 02:45:01;;;;;;;12.60;6.28;;;;;11.30;99494.00;;;;5091804;28;20202;-79
2020/12/07 02:47:28;;;;;;;10.15;6.47;;;;;11.30;99488.00;;;;5091463;28;20963;-79
2020/12/07 02:49:55;;;;;;;10.45;6.25;;;;;11.30;99485.00;;;;5091455;28;20195;-78
2020/12/07 02:52:24;;;;;;;8.25;5.55;;;;;11.30;99486.00;;;;5091946;28;20592;-79
2020/12/07 02:54:53;;;;;;;9.18;5.57;;;;;11.30;99476.00;;;;5091937;28;20205;-79
2020/12/07 02:57:20;;;;;;;9.20;5.95;;;;;11.30;99473.00;;;;5092171;28;20202;-79
2020/12/07 02:59:47;;;;;;;9.98;5.55;;;;;11.30;99468.00;;;;5091412;28;20213;-79
2020/12/07 03:02:14;;;;;;;8.80;5.97;;;;;11.30;99480.00;;;;5091661;28;20195;-79
2020/12/07 03:04:40;;;;;;;9.88;5.95;;;;;11.30;99469.00;;;;5092062;28;20203;-79
2020/12/07 03:07:08;;;;;;;17.45;6.43;;;;;11.30;99465.00;;;;5091732;28;20567;-79
2020/12/07 03:09:35;;;;;;;9.40;5.75;;;;;11.30;99467.00;;;;5090798;28;20675;-79
2020/12/07 03:12:03;;;;;;;8.45;5.80;;;;;11.30;99462.00;;;;5092097;28;20206;-79
2020/12/07 03:14:30;;;;;;;10.25;5.88;;;;;11.30;99463.00;;;;5091224;28;20195;-79
2020/12/07 03:16:57;;;;;;;8.05;5.60;;;;;11.30;99452.00;;;;5091836;28;20190;-79
2020/12/07 03:19:23;;;;;;;11.68;5.72;;;;;11.30;99449.00;;;;5091341;28;20201;-79
2020/12/07 03:21:50;;;;;;;8.75;5.88;;;;;11.30;99451.00;;;;5091619;28;20229;-79
2020/12/07 03:24:17;;;;;;;9.35;5.38;;;;;11.30;99431.00;;;;5091207;28;20246;-79
2020/12/07 03:26:44;;;;;;;9.15;5.45;;;;;11.40;99439.00;;;;5091225;28;20213;-79
2020/12/07 03:29:12;;;;;;;10.13;6.35;;;;;11.30;99426.00;;;;5091273;28;20202;-79
2020/12/07 03:31:39;;;;;;;7.65;5.28;;;;;11.40;99425.00;;;;5090525;28;20206;-79
2020/12/07 03:34:07;;;;;;;8.30;5.70;;;;;11.40;99428.00;;;;5090116;28;20201;-79
2020/12/07 03:36:35;;;;;;;8.32;5.63;;;;;11.40;99420.00;;;;5091348;28;20389;-79
2020/12/07 03:39:02;;;;;;;9.63;5.35;;;;;11.40;99412.00;;;;5091726;28;20213;-79
2020/12/07 03:41:29;;;;;;;7.50;5.07;;;;;11.40;99407.00;;;;5090643;28;20598;-79
2020/12/07 03:43:56;;;;;;;9.45;5.50;;;;;11.40;99415.00;;;;5091064;28;20206;-79
2020/12/07 03:46:23;;;;;;;9.02;5.53;;;;;11.40;99426.00;;;;5089793;28;20205;-79
2020/12/07 03:48:50;;;;;;;8.07;5.32;;;;;11.40;99421.00;;;;5090679;28;20210;-79
2020/12/07 03:51:17;;;;;;;8.20;4.78;;;;;11.40;99424.00;;;;5090785;28;20221;-79
2020/12/07 03:53:44;;;;;;;6.82;4.57;;;;;11.40;99420.00;;;;5090455;28;20209;-79
2020/12/07 03:56:12;;;;;;;8.20;5.00;;;;;11.40;99410.00;;;;5090548;28;20199;-79
2020/12/07 03:58:39;;;;;;;6.97;4.47;;;;;11.40;99412.00;;;;5090251;28;20230;-79
2020/12/07 04:01:09;;;;;;;6.93;4.40;;;;;11.40;99408.00;;;;5090356;28;20226;-79
2020/12/07 04:03:38;;;;;;;7.13;4.25;;;;;11.40;99413.00;;;;5090457;28;20254;-79
2020/12/07 04:06:08;;;;;;;7.65;4.50;;;;;11.40;99412.00;;;;5090879;28;20210;-79
2020/12/07 04:08:35;;;;;;;6.85;4.60;;;;;11.40;99411.00;;;;5090490;28;20240;-79
2020/12/07 04:11:02;;;;;;;6.45;4.03;;;;;11.40;99413.00;;;;5090405;28;20199;-79
2020/12/07 04:13:29;;;;;;;7.07;4.85;;;;;11.40;99413.00;;;;5090082;28;20586;-79
2020/12/07 04:15:56;;;;;;;6.18;4.32;;;;;11.40;99410.00;;;;5090393;28;20255;-79
2020/12/07 04:18:23;;;;;;;5.90;4.10;;;;;11.40;99416.00;;;;5090185;28;20221;-79
2020/12/07 04:20:51;;;;;;;6.70;4.03;;;;;11.40;99419.00;;;;5090969;28;20225;-79
2020/12/07 04:23:17;;;;;;;5.72;3.95;;;;;11.50;99421.00;;;;5090550;28;20194;-79
2020/12/07 04:25:44;;;;;;;5.15;3.72;;;;;11.50;99422.00;;;;5089737;28;20194;-79
2020/12/07 04:28:11;;;;;;;6.53;4.45;;;;;11.50;99425.00;;;;5090622;28;20723;-79
2020/12/07 04:30:40;;;;;;;7.82;4.47;;;;;11.50;99429.00;;;;5090268;28;20209;-79
2020/12/07 04:33:07;;;;;;;6.60;4.50;;;;;11.50;99433.00;;;;5090051;28;20236;-79
2020/12/07 04:35:34;;;;;;;7.72;4.65;;;;;11.50;99440.00;;;;5089179;28;20595;-79
2020/12/07 04:38:02;;;;;;;6.05;3.90;;;;;11.50;99442.00;;;;5090341;28;20202;-79
2020/12/07 04:40:30;;;;;;;7.38;4.65;;;;;11.50;99443.00;;;;5090345;28;20576;-79
2020/12/07 04:42:57;;;;;;;7.47;4.47;;;;;11.50;99439.00;;;;5089804;28;20583;-79
2020/12/07 04:45:24;;;;;;;7.13;5.00;;;;;11.50;99438.00;;;;5087272;28;20212;-79
2020/12/07 04:47:52;;;;;;;7.22;4.25;;;;;11.50;99433.00;;;;5089029;28;20217;-79
2020/12/07 04:50:21;;;;;;;9.43;5.90;;;;;11.50;99431.00;;;;5088966;28;20198;-79
2020/12/07 04:52:49;;;;;;;7.43;4.60;;;;;11.50;99412.00;;;;5089500;28;20710;-79
2020/12/07 04:55:17;;;;;;;7.38;4.68;;;;;11.50;99401.00;;;;5089762;28;20229;-78
2020/12/07 04:57:45;;;;;;;7.00;5.22;;;;;11.50;99400.00;;;;5089216;28;20226;-79
2020/12/07 05:00:12;;;;;;;7.07;4.88;;;;;11.50;99400.00;;;;5089362;28;20206;-79
2020/12/07 05:02:39;;;;;;;7.60;4.68;;;;;11.50;99395.00;;;;5088868;28;20198;-79
2020/12/07 05:05:07;;;;;;;8.00;5.13;;;;;11.50;99401.00;;;;5089680;28;20202;-79
2020/12/07 05:07:34;;;;;;;9.82;5.57;;;;;11.50;99393.00;;;;5089391;28;20202;-79
2020/12/07 05:10:11;;;;;;;7.63;5.38;;;;;11.50;99402.00;;;;5089254;28;20202;-79
2020/12/07 05:12:42;;;;;;;9.65;6.03;;;;;11.50;99390.00;;;;5088628;28;20644;-79
2020/12/07 05:15:11;;;;;;;7.22;4.95;;;;;11.50;99387.00;;;;5089848;28;20260;-79
2020/12/07 05:17:39;;;;;;;6.10;4.00;;;;;11.50;99395.00;;;;5089153;28;20574;-79
2020/12/07 05:20:07;;;;;;;7.05;4.88;;;;;11.50;99395.00;;;;5089395;28;20206;-79
2020/12/07 05:22:35;;;;;;;8.23;4.95;;;;;11.50;99393.00;;;;5088725;28;20201;-79
2020/12/07 05:25:04;;;;;;;6.88;4.85;;;;;11.50;99396.00;;;;5088814;28;20776;-79
2020/12/07 05:27:32;;;;;;;7.25;4.70;;;;;11.50;99396.00;;;;5088647;28;20233;-79
2020/12/07 05:30:11;;;;;;;7.80;5.50;;;;;11.50;99399.00;;;;5088779;28;20256;-79
2020/12/07 05:32:38;;;;;;;6.70;4.60;;;;;11.50;99393.00;;;;5087389;28;20351;-80
2020/12/07 05:35:07;;;;;;;5.90;4.57;;;;;11.50;99382.00;;;;5088578;28;20746;-79
2020/12/07 05:37:34;;;;;;;7.30;4.93;;;;;11.60;99370.00;;;;5088360;28;20221;-80
2020/12/07 05:40:03;;;;;;;7.63;4.65;;;;;11.60;99374.00;;;;5088702;28;20566;-79
2020/12/07 05:42:30;;;;;;;6.05;3.97;;;;;11.60;99378.00;;;;5088371;28;20656;-79
2020/12/07 05:44:59;;;;;;;6.05;4.20;;;;;11.60;99382.00;;;;5088448;28;20581;-79
2020/12/07 05:47:27;;;;;;;7.15;3.97;;;;;11.60;99377.00;;;;5086545;28;20202;-79
2020/12/07 05:49:55;;;;;;;6.60;4.55;;;;;11.60;99366.00;;;;5088421;28;20204;-79
2020/12/07 05:52:41;;;;;;;7.40;4.65;;;;;11.50;99371.00;;;;5087747;28;20217;-79
2020/12/07 05:55:09;;;;;;;5.90;3.80;;;;;11.60;99365.00;;;;5087852;28;20206;-79
2020/12/07 05:57:48;;;;;;;5.40;3.95;;;;;11.60;99366.00;;;;5087543;28;20226;-79
2020/12/07 06:00:21;;;;;;;8.05;4.35;;;;;11.60;99358.00;;;;5086706;28;20213;-79
2020/12/07 06:02:53;;;;;;;7.72;5.22;;;;;11.60;99360.00;;;;5087619;28;20683;-79
2020/12/07 06:05:21;;;;;;;8.07;4.72;;;;;11.60;99360.00;;;;5088297;28;20491;-79
2020/12/07 06:07:55;;;;;;;6.68;4.60;;;;;11.60;99383.00;;;;5088344;28;20197;-79
2020/12/07 06:10:25;;;;;;;6.20;4.25;;;;;11.60;99382.00;;;;5087969;28;20687;-79
2020/12/07 06:12:57;;;;;;;6.55;4.25;;;;;11.70;99385.00;;;;5087498;28;20209;-79
2020/12/07 06:15:26;;;;;;;7.03;4.55;;;;;11.70;99365.00;;;;5087426;28;20664;-79
2020/12/07 06:17:54;;;;;;;7.00;4.22;;;;;11.70;99368.00;;;;5087933;28;20206;-79
2020/12/07 06:20:32;;;;;;;6.78;4.78;;;;;11.60;99366.00;;;;5087483;28;20205;-79
2020/12/07 06:23:01;;;;;;;7.00;4.60;;;;;11.70;99378.00;;;;5088311;28;20201;-79
2020/12/07 06:25:30;;;;;;;7.68;4.88;;;;;11.70;99383.00;;;;5087956;28;20194;-80
2020/12/07 06:28:02;;;;;;;6.45;4.22;;;;;11.70;99387.00;;;;5087955;28;20221;-80
2020/12/07 06:30:36;;;;;;;6.10;3.90;;;;;11.70;99384.00;;;;5071184;28;20593;-79
2020/12/07 06:33:08;;;;;;;5.57;3.67;;;;;11.70;99392.00;;;;5086633;28;20652;-79
2020/12/07 06:35:42;;;;;;;5.53;3.60;;;;;11.70;99398.00;;;;5087253;28;20206;-80
2020/12/07 06:38:09;;;;;;;4.80;3.47;;;;;11.80;99400.00;;;;5087047;28;20569;-80
2020/12/07 06:40:37;;;;;;;5.63;3.97;;;;;11.80;99408.00;;;;5087673;28;20602;-80
2020/12/07 06:43:21;;;;;;;5.18;3.15;;;;;11.70;99413.00;;;;5087372;28;20202;-80
2020/12/07 06:45:48;;;;;;;3.97;2.85;;;;;11.80;99417.00;;;;5085278;28;20201;-80
2020/12/07 06:48:19;;;;;;;7.05;3.50;;;;;11.80;99417.00;;;;5087128;28;20206;-80
2020/12/07 06:50:47;;;;;;;4.30;2.70;;;;;11.80;99417.00;;;;5089741;28;20221;-79
2020/12/07 06:53:35;;;;;;;4.07;2.53;;;;;11.80;99417.00;;;;5078062;28;20199;-80
2020/12/07 06:56:02;;;;;;;4.75;3.50;;;;;11.80;99423.00;;;;5082208;28;20206;-80
2020/12/07 06:58:37;;;;;;;4.03;3.25;;;;;11.80;99422.00;;;;5090877;28;20226;-82
2020/12/07 07:01:11;;;;;;;4.93;3.50;;;;;11.80;99412.00;;;;5087508;28;20239;-82
2020/12/07 07:03:48;;;;;;;5.80;3.47;;;;;11.80;99405.00;;;;5087423;28;20200;-82
2020/12/07 07:06:20;;;;;;;5.00;3.35;;;;;11.80;99398.00;;;;5086277;28;20194;-82
2020/12/07 07:08:47;;;;;;;5.07;3.50;;;;;11.80;99397.00;;;;5099083;28;20232;-82
2020/12/07 07:11:14;;;;;;;7.00;4.22;;;;;11.80;99396.00;;;;5090075;28;20198;-81
2020/12/07 07:13:47;;;;;;;6.80;4.40;;;;;11.80;99384.00;;;;5106194;28;20194;-81
2020/12/07 07:16:13;;;;;;;4.78;3.75;;;;;11.80;99397.00;;;;5094354;28;20296;-82
2020/12/07 07:18:42;;;;;;;6.07;3.90;;;;;11.80;99400.00;;;;5092662;28;20194;-80
2020/12/07 07:21:10;;;;;;;7.95;4.38;;;;;11.80;99395.00;;;;5092090;28;20699;-81
2020/12/07 07:23:42;;;;;;;6.22;4.38;;;;;11.80;99391.00;;;;5091020;28;20202;-82
2020/12/07 07:26:16;;;;;;;7.28;4.63;;;;;11.80;99395.00;;;;5078493;28;20203;-81
2020/12/07 07:28:44;;;;;;;6.72;4.13;;;;;11.80;99401.00;;;;5088220;28;20202;-79
2020/12/07 07:31:12;;;;;;;6.38;4.32;;;;;11.80;99407.00;;;;5083412;28;20199;-79
2020/12/07 07:33:38;;;;;;;5.85;4.05;;;;;11.80;99403.00;;;;5081936;28;20197;-80
2020/12/07 07:36:05;;;;;;;5.63;4.40;;;;;11.80;99400.00;;;;5094429;28;20198;-79
2020/12/07 07:38:34;;;;;;;6.80;4.93;;;;;11.80;99400.00;;;;5091466;28;20202;-79
2020/12/07 07:41:01;;;;;;;7.25;4.82;;;;;11.80;99396.00;;;;5097666;28;20242;-79
2020/12/07 07:43:28;;;;;;;9.65;5.25;;;;;11.80;99406.00;;;;5098253;28;20203;-79
2020/12/07 07:45:59;;;;;;;6.78;4.57;;;;;11.80;99400.00;;;;5094925;28;20197;-79
2020/12/07 07:48:36;;;;;;;8.20;5.47;;;;;11.80;99401.00;;;;5087898;28;20652;-80
2020/12/07 07:51:29;;;;;;;6.80;4.70;;;;;11.80;99411.00;;;;5089776;28;20249;-79
2020/12/07 08:16:30;;;;;;;7.53;4.72;;;;;11.80;99431.00;;;;5089850;28;20263;-79
2020/12/07 08:18:58;;;;;;;5.40;4.03;;;;;11.90;99437.00;;;;5091613;28;20199;-79
2020/12/07 08:21:27;;;;;;;6.68;4.47;;;;;11.90;99445.00;;;;5088653;28;20217;-80
2020/12/07 08:23:55;;;;;;;5.97;4.70;;;;;11.90;99445.00;;;;5086318;28;20209;-79
2020/12/07 08:26:24;;;;;;;8.02;5.57;;;;;11.90;99444.00;;;;5089677;28;20190;-79
2020/12/07 08:28:53;;;;;;;8.70;5.35;;;;;11.90;99445.00;;;;5097446;28;20201;-79
2020/12/07 08:31:21;;;;;;;8.32;4.88;;;;;11.90;99447.00;;;;5100504;27;20202;-79
2020/12/07 08:33:59;;;;;;;7.97;5.07;;;;;11.80;99453.00;;;;5096920;28;20663;-79
2020/12/07 08:36:27;;;;;;;6.72;4.85;;;;;11.90;99448.00;;;;5101802;28;20194;-80
2020/12/07 08:38:53;;;;;;;9.25;5.20;;;;;11.90;99451.00;;;;5092475;28;20202;-80
2020/12/07 08:41:22;;;;;;;7.35;4.50;;;;;11.90;99463.00;;;;5100268;28;20229;-81
2020/12/07 08:43:51;;;;;;;6.93;4.75;;;;;11.90;99459.00;;;;5094795;28;20205;-80
2020/12/07 08:46:21;;;;;;;5.18;3.80;;;;;11.90;99459.00;;;;5087986;28;20210;-80
2020/12/07 08:48:48;;;;;;;6.80;3.85;;;;;11.90;99463.00;;;;5083874;28;20565;-80
2020/12/07 08:51:15;;;;;;;7.43;4.85;;;;;11.90;99467.00;;;;5090855;28;20225;-80
2020/12/07 08:53:42;;;;;;;5.43;4.15;;;;;11.90;99469.00;;;;5092544;28;20198;-80
2020/12/07 08:56:10;;;;;;;6.05;4.40;;;;;11.90;99473.00;;;;5093975;28;20194;-81
2020/12/07 08:58:38;;;;;;;6.47;4.53;;;;;11.90;99473.00;;;;5096593;28;20217;-80
2020/12/07 09:01:07;;;;;;;6.10;4.43;;;;;11.90;99482.00;;;;5088439;28;20317;-80
2020/12/07 09:03:34;;;;;;;6.30;4.18;;;;;11.90;99480.00;;;;5090526;28;20217;-80
2020/12/07 09:06:02;;;;;;;5.70;3.88;;;;;11.90;99479.00;;;;5098805;28;20685;-79
2020/12/07 09:08:28;;;;;;;5.00;3.70;;;;;11.90;99480.00;;;;5088817;28;20194;-79
2020/12/07 09:10:55;;;;;;;5.95;3.60;;;;;11.90;99468.00;;;;5091273;28;20201;-76
2020/12/07 09:13:24;;;;;;;6.47;4.43;;;;;11.90;99479.00;;;;5082656;28;20613;-79
2020/12/07 09:15:51;;;;;;;6.45;3.83;;;;;12.00;99483.00;;;;5087999;28;20198;-79
2020/12/07 09:18:18;;;;;;;4.00;3.33;;;;;12.00;99485.00;;;;5095856;28;20202;-79
2020/12/07 09:20:45;;;;;;;6.18;3.60;;;;;12.00;99486.00;;;;5089674;28;20655;-79
2020/12/07 09:23:12;;;;;;;6.47;4.47;;;;;12.00;99491.00;;;;5093989;28;20194;-79
2020/12/07 09:25:38;;;;;;;5.57;3.70;;;;;12.00;99489.00;;;;5087917;28;20679;-81
2020/12/07 09:28:05;;;;;;;4.50;3.38;;;;;12.00;99480.00;;;;5087160;28;20202;-81
2020/12/07 09:30:33;;;;;;;6.05;3.83;;;;;12.00;99487.00;;;;5093036;28;20195;-79
2020/12/07 09:33:00;;;;;;;5.05;3.50;;;;;12.00;99482.00;;;;5089721;28;20237;-78
2020/12/07 09:35:27;;;;;;;6.82;4.72;;;;;12.00;99481.00;;;;5101479;28;20232;-78
2020/12/07 09:37:54;;;;;;;4.05;3.13;;;;;12.00;99486.00;;;;5098734;28;20244;-78
2020/12/07 09:40:21;;;;;;;4.20;3.33;;;;;12.00;99486.00;;;;5087978;28;20225;-78
2020/12/07 09:42:47;;;;;;;5.25;3.65;;;;;12.00;99485.00;;;;5103197;28;20222;-77
2020/12/07 09:45:14;;;;;;;4.57;3.83;;;;;12.00;99492.00;;;;5087674;28;20248;-78
2020/12/07 09:47:41;;;;;;;5.93;4.28;;;;;12.00;99496.00;;;;5088626;28;20213;-79
2020/12/07 09:50:10;;;;;;;5.75;4.40;;;;;12.00;99492.00;;;;5089366;28;20202;-77
2020/12/07 09:52:37;;;;;;;6.88;4.88;;;;;12.00;99486.00;;;;5096477;28;20232;-77
2020/12/07 09:55:05;;;;;;;5.82;4.63;;;;;12.00;99481.00;;;;5090570;28;20197;-77
2020/12/07 09:57:31;;;;;;;6.65;5.28;;;;;12.00;99490.00;;;;5090352;28;20222;-77
2020/12/07 09:59:58;;;;;;;6.97;5.20;;;;;12.00;99487.00;;;;5103787;28;20201;-77
2020/12/07 10:02:25;;;;;;;8.88;5.43;;;;;12.00;99491.00;;;;5087749;28;20229;-78
2020/12/07 10:04:52;;;;;;;6.93;5.13;;;;;12.00;99492.00;;;;5089750;28;20210;-78
2020/12/07 10:07:19;;;;;;;8.45;6.05;;;;;12.00;99496.00;;;;5076321;28;20597;-77
2020/12/07 10:09:46;;;;;;;7.22;6.15;;;;;12.00;99487.00;;;;5087501;28;20640;-79
2020/12/07 10:12:13;;;;;;;9.05;6.50;;;;;12.00;99499.00;;;;5088526;28;20770;-79
2020/12/07 10:14:40;;;;;;;9.35;6.22;;;;;12.00;99503.00;;;;5089101;28;20224;-77
2020/12/07 10:17:07;;;;;;;8.52;6.13;;;;;12.00;99498.00;;;;5087446;28;20198;-77
2020/12/07 10:19:33;;;;;;;8.55;5.75;;;;;12.00;99498.00;;;;5086863;28;20202;-78
2020/12/07 10:22:03;;;;;;;8.45;5.68;;;;;12.00;99503.00;;;;5086706;28;20222;-78
2020/12/07 10:24:31;;;;;;;8.32;5.93;;;;;12.00;99499.00;;;;5088717;28;20229;-77
2020/12/07 10:26:58;;;;;;;8.38;5.65;;;;;12.00;99501.00;;;;5088543;28;20752;-75
2020/12/07 10:29:25;;;;;;;8.93;6.43;;;;;12.00;99503.00;;;;5091589;28;20187;-76
2020/12/07 10:31:52;;;;;;;9.85;6.57;;;;;12.00;99503.00;;;;5090757;28;20194;-76
2020/12/07 10:34:19;;;;;;;9.43;5.95;;;;;12.00;99512.00;;;;5087752;28;20208;-75
2020/12/07 10:36:46;;;;;;;9.25;6.32;;;;;12.00;99513.00;;;;5077147;28;20206;-77
2020/12/07 10:39:13;;;;;;;8.15;5.85;;;;;12.00;99526.00;;;;5100006;28;20201;-77
2020/12/07 10:41:41;;;;;;;9.52;6.63;;;;;12.00;99511.00;;;;5087304;28;20229;-77
2020/12/07 10:44:08;;;;;;;10.30;6.95;;;;;12.00;99509.00;;;;5089921;28;20198;-76
2020/12/07 10:46:37;;;;;;;9.50;5.93;;;;;12.00;99518.00;;;;5100432;28;20209;-78
2020/12/07 10:49:05;;;;;;;8.23;5.45;;;;;12.10;99515.00;;;;5090311;28;20216;-76
2020/12/07 10:51:31;;;;;;;9.27;5.85;;;;;12.10;99524.00;;;;5084668;28;20214;-77
2020/12/07 10:53:58;;;;;;;8.20;6.07;;;;;12.10;99519.00;;;;5092658;28;20209;-78
2020/12/07 10:56:25;;;;;;;9.80;6.43;;;;;12.10;99520.00;;;;5102090;28;20194;-76
2020/12/07 10:58:53;;;;;;;9.07;6.50;;;;;12.20;99524.00;;;;5106314;28;20703;-77
2020/12/07 11:01:19;;;;;;;8.73;6.47;;;;;12.20;99527.00;;;;5094966;28;20225;-77
2020/12/07 11:03:46;;;;;;;8.02;6.10;;;;;12.20;99525.00;;;;5092220;28;20193;-77
2020/12/07 11:06:16;;;;;;;10.20;7.28;;;;;12.20;99521.00;;;;5106857;28;20197;-78
2020/12/07 11:08:49;;;;;;;10.30;7.35;;;;;12.20;99530.00;;;;5111067;28;20185;-77
2020/12/07 11:11:16;;;;;;;8.88;6.30;;;;;12.20;99530.00;;;;5102240;28;20659;-78
2020/12/07 11:13:43;;;;;;;9.05;7.05;;;;;12.20;99519.00;;;;5094224;28;20486;-77
2020/12/07 11:16:15;;;;;;;11.68;6.95;;;;;12.20;99526.00;;;;5093576;28;20193;-78
2020/12/07 11:18:42;;;;;;;10.55;7.65;;;;;12.20;99525.00;;;;5097782;28;20217;-78
2020/12/07 11:21:12;;;;;;;12.77;7.97;;;;;12.20;99525.00;;;;5083740;28;20218;-77
2020/12/07 11:23:41;;;;;;;12.20;7.85;;;;;12.20;99519.00;;;;5107951;28;20205;-77
2020/12/07 11:26:09;;;;;;;14.35;8.88;;;;;12.20;99515.00;;;;5097355;28;21568;-77
2020/12/07 11:28:37;;;;;;;13.82;9.13;;;;;12.20;99523.00;;;;5091104;28;20190;-78
2020/12/07 11:31:03;;;;;;;13.77;8.48;;;;;12.20;99524.00;;;;5111282;28;20209;-77
2020/12/07 11:33:32;;;;;;;13.00;9.10;;;;;12.20;99524.00;;;;5104410;28;20567;-78
2020/12/07 11:35:58;;;;;;;12.35;8.30;;;;;12.10;99523.00;;;;5092728;28;20202;-78
2020/12/07 11:38:29;;;;;;;12.02;7.90;;;;;12.10;99533.00;;;;5093424;28;20203;-78
2020/12/07 11:41:10;;;;;;;12.13;9.07;;;;;12.10;99538.00;;;;5092505;28;20561;-79
2020/12/07 11:43:44;;;;;;;9.93;7.53;;;;;12.10;99535.00;;;;5096390;28;20659;-78
2020/12/07 11:46:17;;;;;;;13.48;9.35;;;;;12.00;99535.00;;;;5091635;28;20742;-78
2020/12/07 11:48:45;;;;;;;14.70;8.93;;;;;12.00;99539.00;;;;5089577;28;20201;-79
2020/12/07 11:51:11;;;;;;;15.13;9.38;;;;;12.00;99539.00;;;;5091007;28;20218;-79
2020/12/07 11:53:38;;;;;;;16.05;10.27;;;;;12.00;99542.00;;;;5092558;28;20189;-80
2020/12/07 11:56:05;;;;;;;15.65;10.75;;;;;12.00;99546.00;;;;5095049;28;20286;-81
2020/12/07 11:58:32;;;;;;;14.68;9.13;;;;;12.00;99534.00;;;;5096007;28;20233;-79
2020/12/07 12:00:58;;;;;;;18.45;9.75;;;;;12.00;99549.00;;;;5094878;28;20198;-79
2020/12/07 12:03:25;;;;;;;16.00;10.10;;;;;12.00;99546.00;;;;5093418;28;20193;-79
2020/12/07 12:05:53;;;;;;;15.57;9.65;;;;;11.90;99550.00;;;;5096108;28;20698;-79
2020/12/07 12:08:20;;;;;;;15.93;10.05;;;;;11.90;99542.00;;;;5083156;28;20288;-79
2020/12/07 12:10:50;;;;;;;17.67;11.23;;;;;11.80;99550.00;;;;5074754;28;20202;-80
2020/12/07 12:13:17;;;;;;;16.13;9.80;;;;;11.80;99544.00;;;;5081391;28;20684;-79
2020/12/07 12:15:43;;;;;;;18.90;9.98;;;;;11.80;99540.00;;;;5085498;28;20399;-79
2020/12/07 12:18:10;;;;;;;16.98;9.80;;;;;11.80;99538.00;;;;5079932;28;20614;-79
2020/12/07 12:20:42;;;;;;;17.40;10.40;;;;;11.80;99533.00;;;;5082076;28;20214;-79
2020/12/07 12:23:09;;;;;;;17.60;9.73;;;;;11.80;99533.00;;;;5076028;28;20248;-79
2020/12/07 12:25:40;;;;;;;13.10;8.70;;;;;11.80;99549.00;;;;5091202;28;20190;-79
2020/12/07 12:28:07;;;;;;;15.77;9.77;;;;;11.80;99555.00;;;;5079367;28;20190;-79
2020/12/07 12:30:34;;;;;;;17.42;10.05;;;;;11.80;99552.00;;;;5075633;28;20198;-79
2020/12/07 12:33:01;;;;;;;17.02;10.32;;;;;11.80;99553.00;;;;5080770;28;20206;-80
2020/12/07 12:35:28;;;;;;;14.15;8.82;;;;;11.80;99554.00;;;;5093750;28;20210;-80
2020/12/07 12:37:54;;;;;;;14.02;9.15;;;;;11.80;99549.00;;;;5096693;28;20208;-79
2020/12/07 12:40:22;;;;;;;17.08;10.70;;;;;11.80;99562.00;;;;5094381;28;20198;-80